createdAt,value
2022-10-28T00:00:09.168Z,93.83
2022-10-28T00:01:09.207Z,94.13
2022-10-28T00:02:09.200Z,93.93
2022-10-28T00:03:09.197Z,93.83
2022-10-28T00:04:09.110Z,93.12
2022-10-28T00:05:09.107Z,93.32
2022-10-28T00:06:09.100Z,94.13
2022-10-28T00:07:09.085Z,93.02
2022-10-28T00:08:09.085Z,93.79
2022-10-28T00:09:12.126Z,93.43
2022-10-28T00:10:09.119Z,94.09
2022-10-28T00:11:09.051Z,93.48
2022-10-28T00:12:09.027Z,94.09
2022-10-28T00:13:09.022Z,94.09
2022-10-28T00:14:09.035Z,93.89
2022-10-28T00:15:08.992Z,93.89
2022-10-28T00:16:09.006Z,93.12
2022-10-28T00:17:08.995Z,93.93
2022-10-28T00:18:08.974Z,93.73
2022-10-28T00:19:08.975Z,93.83
2022-10-28T00:20:08.964Z,93.68
2022-10-28T00:21:08.943Z,94.40
2022-10-28T00:22:08.955Z,93.93
2022-10-28T00:23:08.918Z,94.29
2022-10-28T00:24:08.932Z,93.89
2022-10-28T00:25:08.902Z,94.20
2022-10-28T00:26:08.902Z,93.68
2022-10-28T00:27:08.886Z,94.60
2022-10-28T00:28:08.882Z,94.29
2022-10-28T00:29:08.890Z,93.99
2022-10-28T00:30:08.868Z,94.09
2022-10-28T00:31:08.845Z,93.79
2022-10-28T00:32:08.838Z,94.20
2022-10-28T00:33:08.817Z,93.99
2022-10-28T00:34:08.814Z,93.68
2022-10-28T00:35:08.821Z,93.38
2022-10-28T00:36:08.832Z,92.97
2022-10-28T00:37:08.785Z,93.59
2022-10-28T00:38:08.771Z,93.18
2022-10-28T00:39:08.768Z,93.38
2022-10-28T00:40:08.745Z,93.89
2022-10-28T00:41:08.780Z,93.79
2022-10-28T00:42:08.758Z,92.97
2022-10-28T00:43:08.732Z,93.48
2022-10-28T00:44:08.719Z,94.50
2022-10-28T00:45:08.718Z,95.41
2022-10-28T00:46:08.695Z,95.10
2022-10-28T00:47:08.706Z,95.21
2022-10-28T00:48:08.688Z,95.31
2022-10-28T00:49:08.702Z,95.01
2022-10-28T00:50:08.660Z,94.70
2022-10-28T00:51:08.642Z,94.29
2022-10-28T00:52:08.675Z,94.29
2022-10-28T00:53:08.622Z,92.97
2022-10-28T00:54:08.611Z,93.68
2022-10-28T00:55:08.635Z,92.97
2022-10-28T00:56:08.596Z,93.79
2022-10-28T00:57:08.587Z,93.38
2022-10-28T00:58:08.611Z,93.79
2022-10-28T00:59:08.582Z,92.97
2022-10-28T01:00:08.620Z,93.59
2022-10-28T01:01:08.576Z,93.89
2022-10-28T01:02:09.604Z,94.20
2022-10-28T01:03:08.531Z,94.70
2022-10-28T01:04:08.544Z,95.31
2022-10-28T01:05:08.532Z,94.90
2022-10-28T01:06:08.510Z,94.66
2022-10-28T01:07:08.556Z,93.74
2022-10-28T01:08:08.493Z,94.15
2022-10-28T01:09:08.473Z,93.03
2022-10-28T01:10:08.461Z,93.74
2022-10-28T01:11:08.448Z,93.99
2022-10-28T01:12:08.466Z,93.48
2022-10-28T01:13:08.432Z,93.68
2022-10-28T01:14:08.439Z,93.28
2022-10-28T01:15:08.412Z,94.09
2022-10-28T01:16:08.400Z,93.07
2022-10-28T01:17:08.414Z,93.89
2022-10-28T01:18:08.377Z,94.29
2022-10-28T01:19:08.378Z,93.89
2022-10-28T01:20:08.368Z,94.29
2022-10-28T01:21:08.362Z,93.59
2022-10-28T01:22:08.355Z,92.47
2022-10-28T01:23:08.351Z,91.96
2022-10-28T01:24:08.324Z,92.36
2022-10-28T01:25:08.327Z,92.57
2022-10-28T01:26:08.308Z,92.41
2022-10-28T01:27:08.302Z,92.41
2022-10-28T01:28:08.290Z,92.51
2022-10-28T01:29:08.302Z,92.41
2022-10-28T01:30:08.330Z,92.25
2022-10-28T01:31:08.269Z,92.45
2022-10-28T01:32:08.247Z,92.51
2022-10-28T01:33:09.242Z,92.65
2022-10-28T01:34:08.226Z,92.55
2022-10-28T01:35:08.257Z,92.96
2022-10-28T01:36:08.212Z,92.71
2022-10-28T01:37:08.234Z,92.55
2022-10-28T01:38:08.195Z,92.86
2022-10-28T01:39:08.172Z,93.41
2022-10-28T01:40:08.174Z,93.21
2022-10-28T01:41:08.180Z,93.31
2022-10-28T01:42:08.172Z,94.23
2022-10-28T01:43:08.137Z,93.71
2022-10-28T01:44:08.147Z,94.02
2022-10-28T01:45:08.137Z,94.12
2022-10-28T01:46:08.133Z,93.82
2022-10-28T01:47:08.105Z,93.31
2022-10-28T01:48:08.114Z,93.82
2022-10-28T01:49:08.092Z,93.92
2022-10-28T01:50:08.080Z,93.82
2022-10-28T01:51:08.065Z,94.12
2022-10-28T01:52:08.076Z,94.02
2022-10-28T01:53:08.056Z,94.02
2022-10-28T01:54:08.043Z,93.92
2022-10-28T01:55:08.066Z,94.23
2022-10-28T01:56:08.027Z,94.02
2022-10-28T01:57:08.022Z,93.92
2022-10-28T01:58:09.014Z,93.51
2022-10-28T01:59:07.999Z,93.82
2022-10-28T02:00:07.999Z,94.23
2022-10-28T02:01:08.058Z,93.82
2022-10-28T02:02:07.990Z,94.32
2022-10-28T02:03:07.993Z,93.16
2022-10-28T02:04:07.948Z,93.87
2022-10-28T02:05:07.943Z,94.18
2022-10-28T02:06:07.922Z,93.87
2022-10-28T02:07:07.929Z,93.77
2022-10-28T02:08:07.915Z,93.47
2022-10-28T02:09:07.944Z,93.67
2022-10-28T02:10:07.906Z,93.57
2022-10-28T02:11:07.879Z,92.76
2022-10-28T02:12:07.899Z,93.16
2022-10-28T02:13:07.908Z,93.67
2022-10-28T02:14:07.860Z,93.47
2022-10-28T02:16:07.834Z,93.06
2022-10-28T02:17:07.826Z,93.37
2022-10-28T02:18:07.833Z,93.26
2022-10-28T02:19:07.793Z,93.87
2022-10-28T02:20:07.805Z,93.98
2022-10-28T02:21:07.779Z,93.98
2022-10-28T02:22:07.808Z,93.77
2022-10-28T02:23:07.765Z,94.02
2022-10-28T02:24:07.754Z,94.32
2022-10-28T02:25:07.756Z,94.32
2022-10-28T02:26:07.750Z,94.12
2022-10-28T02:27:07.720Z,94.32
2022-10-28T02:28:07.749Z,94.02
2022-10-28T02:29:07.702Z,93.21
2022-10-28T02:30:07.693Z,93.01
2022-10-28T02:31:07.753Z,93.62
2022-10-28T02:32:07.685Z,93.98
2022-10-28T02:33:07.670Z,94.02
2022-10-28T02:34:07.703Z,93.98
2022-10-28T02:35:07.645Z,93.98
2022-10-28T02:36:07.643Z,93.92
2022-10-28T02:37:07.624Z,93.31
2022-10-28T02:38:07.618Z,93.82
2022-10-28T02:39:07.639Z,93.92
2022-10-28T02:40:07.593Z,93.71
2022-10-28T02:41:08.588Z,93.10
2022-10-28T02:42:07.577Z,93.01
2022-10-28T02:43:07.580Z,93.05
2022-10-28T02:44:07.604Z,92.94
2022-10-28T02:45:07.554Z,93.35
2022-10-28T02:46:07.550Z,93.15
2022-10-28T02:47:07.563Z,93.15
2022-10-28T02:48:07.521Z,93.15
2022-10-28T02:49:07.510Z,93.05
2022-10-28T02:50:07.522Z,93.15
2022-10-28T02:51:07.500Z,93.25
2022-10-28T02:52:07.517Z,93.25
2022-10-28T02:53:07.474Z,93.25
2022-10-28T02:54:07.494Z,93.25
2022-10-28T02:55:07.481Z,93.01
2022-10-28T02:56:07.454Z,92.94
2022-10-28T02:57:07.434Z,94.01
2022-10-28T02:58:07.427Z,93.09
2022-10-28T02:59:07.459Z,92.99
2022-10-28T03:00:07.412Z,92.84
2022-10-28T03:01:07.500Z,93.05
2022-10-28T03:02:07.430Z,93.50
2022-10-28T03:03:07.387Z,93.66
2022-10-28T03:04:07.388Z,93.29
2022-10-28T03:05:07.370Z,92.84
2022-10-28T03:06:07.393Z,93.50
2022-10-28T03:07:07.364Z,93.25
2022-10-28T03:08:07.361Z,93.50
2022-10-28T03:09:07.341Z,93.86
2022-10-28T03:10:07.332Z,93.70
2022-10-28T03:11:07.306Z,93.50
2022-10-28T03:12:07.298Z,93.80
2022-10-28T03:13:07.282Z,94.01
2022-10-28T03:14:10.626Z,93.86
2022-10-28T03:15:07.263Z,94.31
2022-10-28T03:16:07.270Z,94.17
2022-10-28T03:17:07.248Z,94.11
2022-10-28T03:18:07.301Z,93.90
2022-10-28T03:19:10.267Z,93.29
2022-10-28T03:20:07.223Z,94.42
2022-10-28T03:21:07.208Z,93.90
2022-10-28T03:22:07.183Z,93.60
2022-10-28T03:23:07.171Z,93.25
2022-10-28T03:24:07.197Z,93.25
2022-10-28T03:25:07.174Z,93.45
2022-10-28T03:26:07.187Z,93.70
2022-10-28T03:27:07.149Z,93.40
2022-10-28T03:28:07.134Z,94.11
2022-10-28T03:29:07.144Z,93.70
2022-10-28T03:30:07.116Z,94.11
2022-10-28T03:31:07.106Z,94.11
2022-10-28T03:32:07.097Z,94.35
2022-10-28T03:33:07.077Z,94.72
2022-10-28T03:34:07.096Z,94.56
2022-10-28T03:35:07.085Z,94.87
2022-10-28T03:36:07.083Z,95.17
2022-10-28T03:37:07.064Z,95.48
2022-10-28T03:38:07.043Z,95.58
2022-10-28T03:39:07.027Z,95.37
2022-10-28T03:40:07.017Z,95.78
2022-10-28T03:41:07.024Z,95.78
2022-10-28T03:42:06.996Z,95.48
2022-10-28T03:43:07.014Z,95.37
2022-10-28T03:44:06.993Z,95.37
2022-10-28T03:45:06.990Z,95.48
2022-10-28T03:46:06.994Z,95.58
2022-10-28T03:47:06.953Z,95.33
2022-10-28T03:48:06.947Z,95.48
2022-10-28T03:49:06.935Z,95.23
2022-10-28T03:50:06.919Z,95.64
2022-10-28T03:51:06.939Z,95.43
2022-10-28T03:52:06.905Z,95.33
2022-10-28T03:53:06.883Z,95.37
2022-10-28T03:54:06.911Z,95.74
2022-10-28T03:55:06.881Z,95.74
2022-10-28T03:56:06.862Z,95.43
2022-10-28T03:57:06.890Z,95.23
2022-10-28T03:58:06.858Z,95.43
2022-10-28T03:59:06.855Z,95.29
2022-10-28T04:00:06.831Z,95.39
2022-10-28T04:01:06.870Z,95.64
2022-10-28T04:02:06.964Z,95.64
2022-10-28T04:03:06.791Z,95.23
2022-10-28T04:04:06.781Z,95.84
2022-10-28T04:05:06.768Z,95.59
2022-10-28T04:06:06.873Z,95.69
2022-10-28T04:07:06.763Z,95.59
2022-10-28T04:08:06.744Z,95.29
2022-10-28T04:09:06.742Z,95.39
2022-10-28T04:10:06.741Z,95.69
2022-10-28T04:11:06.728Z,95.59
2022-10-28T04:12:06.704Z,95.59
2022-10-28T04:13:06.717Z,95.43
2022-10-28T04:14:06.717Z,95.64
2022-10-28T04:15:06.669Z,95.59
2022-10-28T04:16:06.672Z,95.69
2022-10-28T04:17:06.662Z,95.24
2022-10-28T04:18:06.700Z,94.68
2022-10-28T04:19:06.642Z,94.68
2022-10-28T04:20:06.685Z,95.49
2022-10-28T04:21:06.614Z,95.34
2022-10-28T04:22:06.602Z,95.45
2022-10-28T04:23:06.625Z,95.54
2022-10-28T04:24:06.620Z,95.24
2022-10-28T04:25:06.625Z,95.54
2022-10-28T04:26:06.563Z,95.45
2022-10-28T04:27:06.601Z,96.06
2022-10-28T04:28:06.538Z,96.46
2022-10-28T04:29:06.574Z,95.34
2022-10-28T04:30:06.525Z,95.24
2022-10-28T04:31:06.536Z,95.65
2022-10-28T04:32:06.519Z,94.59
2022-10-28T04:33:07.547Z,94.28
2022-10-28T04:34:06.565Z,93.41
2022-10-28T04:35:06.486Z,93.98
2022-10-28T04:36:06.467Z,94.08
2022-10-28T04:37:06.576Z,93.87
2022-10-28T04:38:06.458Z,93.26
2022-10-28T04:39:06.451Z,93.98
2022-10-28T04:40:06.447Z,93.98
2022-10-28T04:41:06.412Z,94.18
2022-10-28T04:42:06.425Z,94.08
2022-10-28T04:43:08.569Z,94.24
2022-10-28T04:44:07.396Z,93.93
2022-10-28T04:45:06.371Z,94.13
2022-10-28T04:46:06.371Z,93.83
2022-10-28T04:47:06.364Z,93.52
2022-10-28T04:48:06.440Z,93.83
2022-10-28T04:49:06.350Z,92.91
2022-10-28T04:50:06.375Z,93.12
2022-10-28T04:51:06.330Z,93.73
2022-10-28T04:52:06.338Z,93.79
2022-10-28T04:53:06.305Z,93.73
2022-10-28T04:54:06.303Z,93.79
2022-10-28T04:55:06.291Z,93.73
2022-10-28T04:56:06.281Z,93.73
2022-10-28T04:57:06.264Z,93.89
2022-10-28T04:58:06.277Z,93.07
2022-10-28T04:59:06.255Z,92.67
2022-10-28T05:00:06.259Z,93.79
2022-10-28T05:01:06.264Z,93.68
2022-10-28T05:02:06.420Z,93.99
2022-10-28T05:03:06.294Z,93.68
2022-10-28T05:04:06.226Z,93.68
2022-10-28T05:05:06.239Z,93.59
2022-10-28T05:06:06.168Z,94.09
2022-10-28T05:07:06.162Z,93.89
2022-10-28T05:08:06.167Z,93.64
2022-10-28T05:09:06.155Z,93.59
2022-10-28T05:10:06.201Z,93.79
2022-10-28T05:11:06.152Z,93.79
2022-10-28T05:12:06.125Z,93.28
2022-10-28T05:13:06.100Z,92.97
2022-10-28T05:14:06.106Z,92.77
2022-10-28T05:15:06.144Z,92.82
2022-10-28T05:16:06.103Z,92.67
2022-10-28T05:17:06.068Z,92.51
2022-10-28T05:18:06.058Z,92.51
2022-10-28T05:19:06.071Z,92.51
2022-10-28T05:20:06.045Z,92.86
2022-10-28T05:21:06.049Z,92.76
2022-10-28T05:22:06.045Z,92.76
2022-10-28T05:23:06.032Z,92.96
2022-10-28T05:24:06.106Z,92.96
2022-10-28T05:25:06.008Z,93.62
2022-10-28T05:26:06.061Z,94.23
2022-10-28T05:27:05.972Z,94.02
2022-10-28T05:28:06.055Z,94.02
2022-10-28T05:29:05.991Z,93.62
2022-10-28T05:30:05.987Z,94.12
2022-10-28T05:31:05.952Z,93.92
2022-10-28T05:32:05.960Z,93.82
2022-10-28T05:33:05.920Z,94.43
2022-10-28T05:34:05.909Z,94.53
2022-10-28T05:35:05.905Z,94.12
2022-10-28T05:36:05.915Z,94.12
2022-10-28T05:37:05.907Z,93.77
2022-10-28T05:38:05.876Z,94.28
2022-10-28T05:39:05.940Z,93.67
2022-10-28T05:40:05.839Z,94.38
2022-10-28T05:41:05.850Z,94.28
2022-10-28T05:42:05.825Z,94.38
2022-10-28T05:43:05.809Z,94.44
2022-10-28T05:44:05.817Z,94.64
2022-10-28T05:45:05.824Z,94.13
2022-10-28T05:46:05.784Z,93.43
2022-10-28T05:47:05.791Z,94.08
2022-10-28T05:48:05.771Z,93.77
2022-10-28T05:49:05.800Z,93.77
2022-10-28T05:50:05.755Z,94.18
2022-10-28T05:51:05.740Z,93.73
2022-10-28T05:52:05.759Z,93.98
2022-10-28T05:53:05.726Z,93.93
2022-10-28T05:54:05.808Z,93.26
2022-10-28T05:55:05.700Z,93.16
2022-10-28T05:56:05.722Z,93.63
2022-10-28T05:57:05.746Z,92.91
2022-10-28T05:58:05.680Z,92.91
2022-10-28T05:59:05.688Z,93.32
2022-10-28T06:00:05.683Z,93.52
2022-10-28T06:01:05.637Z,93.83
2022-10-28T06:02:05.622Z,93.93
2022-10-28T06:03:05.616Z,93.73
2022-10-28T06:04:05.717Z,94.13
2022-10-28T06:05:05.702Z,93.93
2022-10-28T06:06:05.592Z,93.12
2022-10-28T06:07:05.595Z,93.93
2022-10-28T06:08:05.568Z,93.12
2022-10-28T06:09:05.566Z,93.89
2022-10-28T06:10:05.564Z,94.13
2022-10-28T06:11:04.051Z,94.13
2022-10-28T06:12:04.018Z,94.13
2022-10-28T06:13:03.995Z,93.02
2022-10-28T06:14:04.026Z,93.93
2022-10-28T06:15:03.974Z,93.52
2022-10-28T06:16:04.050Z,93.43
2022-10-28T06:17:03.958Z,93.63
2022-10-28T06:18:03.949Z,93.02
2022-10-28T06:19:03.971Z,93.89
2022-10-28T06:20:03.941Z,94.09
2022-10-28T06:21:03.922Z,93.32
2022-10-28T06:22:03.934Z,93.48
2022-10-28T06:23:03.905Z,93.73
2022-10-28T06:24:05.121Z,93.07
2022-10-28T06:25:03.908Z,93.07
2022-10-28T06:26:03.872Z,92.87
2022-10-28T06:27:03.863Z,92.77
2022-10-28T06:28:06.968Z,92.67
2022-10-28T06:29:04.852Z,92.77
2022-10-28T06:30:03.865Z,93.18
2022-10-28T06:31:03.831Z,92.82
2022-10-28T06:32:03.819Z,92.91
2022-10-28T06:33:03.836Z,92.77
2022-10-28T06:34:03.832Z,92.71
2022-10-28T06:35:03.791Z,92.97
2022-10-28T06:36:03.791Z,92.77
2022-10-28T06:37:03.878Z,93.63
2022-10-28T06:38:08.476Z,92.77
2022-10-28T06:39:04.780Z,93.07
2022-10-28T06:40:03.834Z,93.07
2022-10-28T06:41:03.774Z,93.07
2022-10-28T06:42:03.762Z,92.57
2022-10-28T06:43:03.732Z,92.67
2022-10-28T06:44:03.812Z,93.38
2022-10-28T06:45:03.719Z,92.77
2022-10-28T06:46:03.725Z,93.22
2022-10-28T06:47:05.210Z,93.32
2022-10-28T06:48:05.243Z,93.02
2022-10-28T06:49:05.192Z,92.97
2022-10-28T06:50:05.233Z,93.07
2022-10-28T06:51:05.174Z,92.47
2022-10-28T06:52:05.174Z,92.57
2022-10-28T06:53:05.163Z,92.51
2022-10-28T06:54:05.154Z,92.61
2022-10-28T06:55:05.131Z,92.82
2022-10-28T06:56:05.199Z,92.91
2022-10-28T06:57:06.112Z,92.51
2022-10-28T06:58:05.120Z,92.61
2022-10-28T06:59:05.149Z,92.61
2022-10-28T07:00:05.090Z,92.71
2022-10-28T07:01:05.074Z,92.51
2022-10-28T07:02:05.322Z,92.61
2022-10-28T07:03:05.132Z,92.41
2022-10-28T07:04:05.065Z,92.47
2022-10-28T07:05:05.087Z,92.21
2022-10-28T07:06:05.108Z,91.96
2022-10-28T07:07:05.043Z,91.86
2022-10-28T07:08:05.018Z,91.65
2022-10-28T07:09:05.026Z,91.65
2022-10-28T07:10:05.003Z,91.55
2022-10-28T07:11:05.015Z,91.45
2022-10-28T07:12:05.788Z,91.45
2022-10-28T07:13:05.978Z,91.20
2022-10-28T07:14:04.978Z,91.25
2022-10-28T07:15:04.941Z,91.35
2022-10-28T07:16:04.931Z,91.05
2022-10-28T07:17:04.931Z,91.45
2022-10-28T07:18:04.955Z,91.35
2022-10-28T07:19:04.925Z,91.55
2022-10-28T07:20:04.903Z,91.41
2022-10-28T07:21:04.909Z,91.10
2022-10-28T07:22:04.891Z,91.20
2022-10-28T07:23:04.876Z,90.96
2022-10-28T07:24:04.870Z,90.12
2022-10-28T07:25:04.860Z,88.76
2022-10-28T07:26:04.868Z,87.26
2022-10-28T07:27:04.836Z,86.27
2022-10-28T07:28:04.831Z,84.27
2022-10-28T07:29:04.818Z,82.71
2022-10-28T07:30:04.801Z,81.59
2022-10-28T07:31:04.892Z,80.33
2022-10-28T07:32:04.794Z,79.05
2022-10-28T07:33:04.781Z,77.31
2022-10-28T07:34:04.780Z,76.93
2022-10-28T07:35:04.877Z,74.62
2022-10-28T07:36:04.775Z,75.09
2022-10-28T07:37:04.742Z,73.91
2022-10-28T07:38:04.739Z,74.92
2022-10-28T07:39:04.719Z,75.42
2022-10-28T07:40:04.728Z,75.42
2022-10-28T07:41:04.725Z,75.22
2022-10-28T07:42:04.794Z,75.29
2022-10-28T07:43:04.689Z,75.05
2022-10-28T07:44:04.676Z,74.21
2022-10-28T07:45:04.791Z,74.21
2022-10-28T07:46:04.679Z,73.30
2022-10-28T07:47:04.665Z,73.00
2022-10-28T07:48:04.669Z,71.86
2022-10-28T07:49:04.632Z,72.03
2022-10-28T07:50:04.669Z,71.80
2022-10-28T07:51:04.588Z,71.09
2022-10-28T07:52:04.681Z,70.26
2022-10-28T07:53:04.671Z,70.23
2022-10-28T07:54:04.581Z,71.73
2022-10-28T07:55:04.630Z,70.23
2022-10-28T07:56:04.555Z,71.13
2022-10-28T07:57:04.562Z,71.86
2022-10-28T07:58:04.603Z,72.33
2022-10-28T07:59:04.524Z,71.56
2022-10-28T08:00:04.506Z,70.53
2022-10-28T08:01:23.542Z,70.66
2022-10-28T08:02:04.564Z,71.36
2022-10-28T08:03:04.509Z,71.23
2022-10-28T08:04:04.479Z,71.13
2022-10-28T08:05:04.595Z,70.29
2022-10-28T08:06:04.489Z,71.09
2022-10-28T08:07:04.449Z,70.63
2022-10-28T08:08:04.418Z,70.46
2022-10-28T08:09:04.464Z,71.40
2022-10-28T08:10:04.431Z,71.40
2022-10-28T08:11:04.391Z,71.77
2022-10-28T08:12:04.387Z,71.26
2022-10-28T08:13:04.371Z,70.66
2022-10-28T08:14:04.373Z,70.29
2022-10-28T08:15:04.435Z,71.53
2022-10-28T08:16:04.364Z,73.04
2022-10-28T08:17:04.329Z,72.74
2022-10-28T08:18:04.315Z,71.94
2022-10-28T08:19:07.663Z,72.40
2022-10-28T08:20:04.305Z,71.94
2022-10-28T08:21:04.310Z,72.80
2022-10-28T08:22:04.274Z,72.44
2022-10-28T08:23:06.713Z,73.14
2022-10-28T08:24:04.259Z,71.40
2022-10-28T08:25:04.307Z,73.30
2022-10-28T08:26:04.247Z,72.71
2022-10-28T08:27:04.222Z,73.07
2022-10-28T08:28:04.248Z,72.74
2022-10-28T08:29:04.264Z,71.36
2022-10-28T08:30:04.195Z,71.47
2022-10-28T08:31:09.693Z,71.77
2022-10-28T08:32:06.170Z,70.86
2022-10-28T08:33:04.176Z,70.96
2022-10-28T08:34:04.156Z,71.23
2022-10-28T08:35:04.241Z,70.96
2022-10-28T08:36:04.170Z,73.47
2022-10-28T08:37:04.152Z,73.07
2022-10-28T08:38:04.112Z,73.30
2022-10-28T08:39:04.150Z,74.15
2022-10-28T08:40:04.106Z,74.98
2022-10-28T08:41:04.092Z,75.38
2022-10-28T08:42:04.084Z,75.55
2022-10-28T08:43:04.063Z,74.18
2022-10-28T08:44:04.056Z,73.54
2022-10-28T08:45:04.126Z,71.39
2022-10-28T08:46:04.051Z,72.66
2022-10-28T08:47:04.028Z,71.23
2022-10-28T08:48:04.028Z,69.29
2022-10-28T08:49:04.022Z,68.96
2022-10-28T08:50:04.074Z,68.76
2022-10-28T08:51:04.000Z,69.16
2022-10-28T08:52:03.993Z,68.86
2022-10-28T08:53:04.061Z,68.66
2022-10-28T08:54:03.972Z,68.55
2022-10-28T08:55:03.959Z,70.29
2022-10-28T08:56:03.950Z,69.99
2022-10-28T08:57:03.936Z,70.79
2022-10-28T08:58:03.947Z,69.29
2022-10-28T08:59:03.922Z,69.09
2022-10-28T09:00:03.914Z,70.39
2022-10-28T09:01:10.649Z,70.76
2022-10-28T09:02:03.899Z,68.76
2022-10-28T09:03:03.889Z,68.86
2022-10-28T09:04:03.883Z,68.02
2022-10-28T09:05:03.868Z,67.79
2022-10-28T09:06:03.885Z,70.03
2022-10-28T09:07:03.839Z,69.49
2022-10-28T09:08:03.876Z,67.82
2022-10-28T09:09:03.816Z,69.46
2022-10-28T09:10:03.819Z,68.89
2022-10-28T09:11:03.816Z,68.99
2022-10-28T09:12:03.795Z,68.59
2022-10-28T09:13:03.779Z,69.19
2022-10-28T09:14:03.788Z,68.69
2022-10-28T09:15:03.757Z,68.49
2022-10-28T09:16:03.823Z,69.16
2022-10-28T09:17:22.653Z,68.93
2022-10-28T09:18:03.737Z,69.06
2022-10-28T09:19:03.736Z,67.43
2022-10-28T09:20:03.718Z,68.93
2022-10-28T09:21:03.724Z,67.79
2022-10-28T09:22:03.714Z,67.99
2022-10-28T09:23:03.690Z,67.96
2022-10-28T09:24:03.668Z,67.89
2022-10-28T09:25:03.738Z,66.32
2022-10-28T09:26:03.663Z,66.32
2022-10-28T09:27:03.675Z,66.55
2022-10-28T09:28:03.633Z,67.19
2022-10-28T09:29:03.759Z,69.09
2022-10-28T09:30:03.620Z,68.86
2022-10-28T09:31:03.609Z,68.16
2022-10-28T09:32:03.614Z,68.32
2022-10-28T09:33:03.586Z,66.63
2022-10-28T09:34:03.580Z,67.52
2022-10-28T09:35:03.597Z,67.32
2022-10-28T09:36:03.559Z,66.82
2022-10-28T09:37:03.592Z,66.59
2022-10-28T09:38:03.567Z,66.29
2022-10-28T09:39:03.525Z,66.32
2022-10-28T09:40:03.534Z,65.83
2022-10-28T09:41:03.507Z,66.02
2022-10-28T09:42:03.500Z,66.49
2022-10-28T09:43:03.538Z,67.02
2022-10-28T09:44:03.496Z,67.72
2022-10-28T09:45:03.559Z,67.82
2022-10-28T09:46:03.478Z,67.99
2022-10-28T09:47:03.449Z,66.79
2022-10-28T09:48:03.437Z,67.72
2022-10-28T09:49:03.424Z,67.52
2022-10-28T09:50:03.436Z,66.42
2022-10-28T09:51:03.435Z,68.62
2022-10-28T09:52:03.408Z,66.29
2022-10-28T09:53:03.391Z,67.19
2022-10-28T09:54:03.388Z,66.36
2022-10-28T09:55:03.378Z,66.76
2022-10-28T09:56:03.497Z,65.36
2022-10-28T09:57:03.363Z,65.36
2022-10-28T09:58:03.456Z,66.46
2022-10-28T09:59:03.371Z,65.16
2022-10-28T10:00:03.330Z,65.36
2022-10-28T10:01:03.311Z,65.06
2022-10-28T10:02:03.532Z,64.56
2022-10-28T10:03:03.395Z,64.86
2022-10-28T10:04:03.342Z,65.26
2022-10-28T10:05:03.336Z,65.13
2022-10-28T10:06:03.271Z,65.53
2022-10-28T10:07:04.290Z,65.13
2022-10-28T10:08:03.247Z,64.33
2022-10-28T10:09:03.244Z,64.60
2022-10-28T10:11:03.215Z,64.10
2022-10-28T10:12:03.228Z,64.43
2022-10-28T10:13:03.206Z,64.13
2022-10-28T10:14:03.211Z,65.13
2022-10-28T10:15:03.184Z,65.13
2022-10-28T10:16:03.164Z,64.80
2022-10-28T10:17:03.162Z,64.30
2022-10-28T10:18:03.145Z,65.60
2022-10-28T10:19:03.166Z,63.10
2022-10-28T10:20:03.195Z,64.40
2022-10-28T10:21:03.118Z,64.30
2022-10-28T10:22:03.130Z,64.20
2022-10-28T10:23:03.106Z,62.90
2022-10-28T10:24:03.091Z,63.07
2022-10-28T10:25:03.078Z,63.00
2022-10-28T10:26:06.684Z,63.17
2022-10-28T10:27:03.090Z,63.60
2022-10-28T10:28:03.056Z,63.80
2022-10-28T10:29:03.036Z,65.23
2022-10-28T10:30:03.056Z,63.20
2022-10-28T10:31:03.056Z,63.60
2022-10-28T10:32:03.018Z,63.27
2022-10-28T10:33:03.008Z,63.50
2022-10-28T10:34:03.008Z,63.97
2022-10-28T10:35:02.994Z,62.77
2022-10-28T10:36:03.018Z,62.48
2022-10-28T10:38:02.953Z,62.07
2022-10-28T10:39:02.995Z,63.77
2022-10-28T10:40:02.937Z,63.04
2022-10-28T10:41:02.944Z,61.94
2022-10-28T10:42:02.944Z,61.85
2022-10-28T10:43:13.699Z,63.11
2022-10-28T10:44:04.921Z,61.58
2022-10-28T10:45:02.885Z,60.49
2022-10-28T10:46:02.916Z,60.69
2022-10-28T10:47:06.065Z,60.59
2022-10-28T10:48:02.874Z,59.99
2022-10-28T10:49:02.904Z,59.69
2022-10-28T10:50:02.847Z,58.97
2022-10-28T10:51:02.886Z,60.24
2022-10-28T10:52:02.906Z,60.93
2022-10-28T10:53:02.822Z,58.61
2022-10-28T10:54:02.858Z,59.51
2022-10-28T10:55:02.791Z,58.91
2022-10-28T10:56:02.839Z,58.01
2022-10-28T10:57:02.827Z,58.11
2022-10-28T10:58:02.763Z,59.04
2022-10-28T10:59:02.745Z,59.41
2022-10-28T11:00:02.743Z,58.31
2022-10-28T11:01:02.734Z,57.94
2022-10-28T11:02:02.824Z,58.24
2022-10-28T11:03:02.800Z,58.24
2022-10-28T11:04:02.711Z,59.41
2022-10-28T11:05:02.701Z,58.11
2022-10-28T11:06:22.507Z,58.81
2022-10-28T11:07:04.705Z,58.41
2022-10-28T11:08:02.686Z,58.31
2022-10-28T11:09:02.820Z,58.28
2022-10-28T11:10:02.662Z,58.11
2022-10-28T11:11:02.642Z,57.02
2022-10-28T11:12:05.526Z,57.39
2022-10-28T11:13:02.631Z,56.89
2022-10-28T11:14:02.604Z,55.43
2022-10-28T11:15:02.590Z,58.31
2022-10-28T11:16:02.587Z,57.59
2022-10-28T11:17:02.576Z,56.89
2022-10-28T11:18:02.584Z,55.53
2022-10-28T11:19:02.647Z,55.23
2022-10-28T11:20:02.563Z,56.92
2022-10-28T11:21:02.544Z,55.13
2022-10-28T11:22:02.543Z,55.23
2022-10-28T11:23:02.545Z,55.82
2022-10-28T11:24:02.559Z,55.43
2022-10-28T11:25:02.543Z,55.70
2022-10-28T11:26:02.489Z,55.70
2022-10-28T11:27:02.492Z,55.60
2022-10-28T11:28:04.368Z,55.97
2022-10-28T11:29:02.465Z,55.40
2022-10-28T11:30:02.484Z,55.50
2022-10-28T11:31:02.516Z,56.17
2022-10-28T11:32:02.494Z,55.57
2022-10-28T11:33:24.674Z,54.97
2022-10-28T11:34:02.421Z,54.38
2022-10-28T11:35:02.451Z,54.28
2022-10-28T11:36:02.401Z,54.88
2022-10-28T11:37:02.382Z,54.68
2022-10-28T11:38:02.379Z,54.48
2022-10-28T11:39:02.399Z,54.11
2022-10-28T11:40:02.372Z,54.11
2022-10-28T11:41:02.350Z,54.71
2022-10-28T11:42:02.348Z,55.10
2022-10-28T11:43:02.325Z,55.70
2022-10-28T11:44:05.247Z,54.71
2022-10-28T11:45:03.328Z,55.50
2022-10-28T11:46:02.305Z,54.60
2022-10-28T11:47:04.943Z,55.60
2022-10-28T11:48:03.312Z,54.80
2022-10-28T11:49:02.273Z,54.60
2022-10-28T11:50:02.273Z,54.11
2022-10-28T11:51:02.252Z,54.53
2022-10-28T11:52:02.249Z,53.83
2022-10-28T11:53:02.267Z,54.31
2022-10-28T11:54:02.231Z,54.50
2022-10-28T11:55:02.209Z,53.61
2022-10-28T11:56:02.210Z,53.02
2022-10-28T11:57:02.218Z,53.39
2022-10-28T11:58:02.292Z,53.21
2022-10-28T11:59:02.196Z,52.89
2022-10-28T12:00:02.264Z,52.89
2022-10-28T12:01:02.159Z,52.12
2022-10-28T12:02:02.229Z,52.51
2022-10-28T12:03:02.558Z,53.21
2022-10-28T12:04:02.165Z,52.91
2022-10-28T12:05:02.118Z,52.44
2022-10-28T12:06:02.111Z,52.64
2022-10-28T12:07:02.101Z,51.92
2022-10-28T12:08:02.097Z,51.82
2022-10-28T12:09:02.131Z,53.02
2022-10-28T12:10:02.071Z,52.62
2022-10-28T12:11:02.065Z,51.70
2022-10-28T12:12:02.066Z,52.91
2022-10-28T12:13:02.042Z,52.39
2022-10-28T12:15:02.022Z,52.49
2022-10-28T12:16:02.006Z,51.89
2022-10-28T12:17:02.057Z,52.19
2022-10-28T12:18:02.050Z,52.22
2022-10-28T12:19:02.026Z,53.02
2022-10-28T12:20:01.981Z,51.72
2022-10-28T12:21:01.996Z,52.02
2022-10-28T12:22:01.946Z,52.12
2022-10-28T12:23:01.946Z,52.09
2022-10-28T12:24:01.939Z,52.49
2022-10-28T12:25:01.986Z,53.19
2022-10-28T12:26:01.901Z,52.49
2022-10-28T12:27:01.921Z,52.89
2022-10-28T12:28:01.975Z,52.49
2022-10-28T12:29:01.881Z,52.39
2022-10-28T12:30:01.865Z,52.51
2022-10-28T12:31:01.854Z,52.91
2022-10-28T12:32:01.881Z,53.41
2022-10-28T12:33:01.844Z,52.81
2022-10-28T12:34:01.832Z,53.31
2022-10-28T12:35:01.818Z,52.84
2022-10-28T12:36:01.808Z,53.24
2022-10-28T12:37:01.804Z,54.24
2022-10-28T12:38:01.932Z,53.24
2022-10-28T12:39:01.813Z,53.24
2022-10-28T12:40:01.776Z,53.24
2022-10-28T12:41:01.774Z,54.43
2022-10-28T12:42:01.767Z,53.04
2022-10-28T12:43:01.776Z,53.24
2022-10-28T12:44:01.742Z,53.41
2022-10-28T12:45:01.717Z,53.41
2022-10-28T12:46:02.759Z,53.61
2022-10-28T12:47:01.703Z,53.71
2022-10-28T12:48:01.695Z,52.84
2022-10-28T12:49:01.689Z,53.24
2022-10-28T12:50:01.678Z,53.91
2022-10-28T12:51:01.710Z,54.01
2022-10-28T12:52:01.682Z,53.51
2022-10-28T12:53:01.646Z,54.11
2022-10-28T12:54:01.630Z,54.18
2022-10-28T12:55:01.657Z,53.21
2022-10-28T12:56:01.659Z,53.24